Time,TemperatureF,DewpointF,PressureIn,WindDirection,WindDirectionDegrees,WindSpeedMPH,WindSpeedGustMPH,Humidity,HourlyPrecipIn,Conditions,Clouds,dailyrainin,SoftwareType,DateUTC
2013-03-09 00:00:00,36.8,33.3,30.22,North,10,1.0,2.0,87,0.00,,,0.00,VWS V14.00,2013-03-09 05:00:00,
2013-03-09 00:01:00,36.8,33.3,30.22,North,11,0.0,2.0,87,0.00,,,0.00,VWS V14.00,2013-03-09 05:01:00,
2013-03-09 00:06:00,37.2,34.0,30.22,North,11,0.0,0.0,88,0.00,,,0.00,VWS V14.00,2013-03-09 05:06:00,
2013-03-09 00:12:00,37.1,33.3,30.22,North,10,0.0,0.0,86,0.00,,,0.00,VWS V14.00,2013-03-09 05:12:00,
2013-03-09 00:17:00,36.9,33.1,30.22,North,11,0.0,0.0,86,0.00,,,0.00,VWS V14.00,2013-03-09 05:17:00,
2013-03-09 00:22:00,36.7,32.9,30.22,North,11,0.0,0.0,86,0.00,,,0.00,VWS V14.00,2013-03-09 05:22:00,
2013-03-09 00:27:00,36.5,32.7,30.22,North,11,0.0,0.0,86,0.00,,,0.00,VWS V14.00,2013-03-09 05:27:00,
2013-03-09 00:32:00,36.5,32.7,30.22,North,11,0.0,0.0,86,0.00,,,0.00,VWS V14.00,2013-03-09 05:32:00,
2013-03-09 00:37:00,36.4,32.9,30.22,North,11,0.0,0.0,87,0.00,,,0.00,VWS V14.00,2013-03-09 05:37:00,
2013-03-09 00:43:00,36.4,33.2,30.22,North,11,0.0,0.0,88,0.00,,,0.00,VWS V14.00,2013-03-09 05:43:00,
2013-03-09 00:48:00,36.7,33.2,30.22,North,11,1.0,2.0,87,0.00,,,0.00,VWS V14.00,2013-03-09 05:48:00,
2013-03-09 00:53:00,37.9,32.9,30.22,NNE,29,2.0,3.0,82,0.00,,,0.00,VWS V14.00,2013-03-09 05:53:00,
2013-03-09 00:58:00,38.8,33.5,30.22,NE,38,1.0,3.0,81,0.00,,,0.00,VWS V14.00,2013-03-09 05:58:00,
2013-03-09 01:03:00,39.4,32.8,30.22,NE,38,0.0,2.0,77,0.00,,,0.00,VWS V14.00,2013-03-09 06:03:00,
2013-03-09 01:08:00,40.2,32.9,30.22,NNE,32,1.0,3.0,75,0.00,,,0.00,VWS V14.00,2013-03-09 06:08:00,
2013-03-09 01:13:00,40.9,32.9,30.22,NE,36,1.0,3.0,73,0.00,,,0.00,VWS V14.00,2013-03-09 06:13:00,
2013-03-09 01:19:00,41.5,32.8,30.22,NE,36,1.0,3.0,71,0.00,,,0.00,VWS V14.00,2013-03-09 06:19:00,
2013-03-09 01:24:00,41.7,33.0,30.21,NE,36,1.0,2.0,71,0.00,,,0.00,VWS V14.00,2013-03-09 06:24:00,
2013-03-09 01:29:00,41.4,33.1,30.21,NE,44,0.0,2.0,72,0.00,,,0.00,VWS V14.00,2013-03-09 06:29:00,
2013-03-09 01:34:00,41.1,33.5,30.21,NE,56,1.0,2.0,74,0.00,,,0.00,VWS V14.00,2013-03-09 06:34:00,
2013-03-09 01:39:00,40.7,33.4,30.21,NE,54,0.0,2.0,75,0.00,,,0.00,VWS V14.00,2013-03-09 06:39:00,
2013-03-09 01:44:00,40.3,33.3,30.21,NE,36,0.0,0.0,76,0.00,,,0.00,VWS V14.00,2013-03-09 06:44:00,
2013-03-09 01:50:00,39.3,33.3,30.21,NE,36,0.0,0.0,79,0.00,,,0.00,VWS V14.00,2013-03-09 06:50:00,
2013-03-09 01:55:00,38.6,33.0,30.21,NE,36,0.0,0.0,80,0.00,,,0.00,VWS V14.00,2013-03-09 06:55:00,
2013-03-09 02:00:00,38.1,33.1,30.21,NE,36,0.0,0.0,82,0.00,,,0.00,VWS V14.00,2013-03-09 07:00:00,
2013-03-09 02:05:00,38.0,33.0,30.21,NE,36,0.0,3.0,82,0.00,,,0.00,VWS V14.00,2013-03-09 07:05:00,
2013-03-09 02:10:00,38.4,33.1,30.21,NE,37,0.0,3.0,81,0.00,,,0.00,VWS V14.00,2013-03-09 07:10:00,
2013-03-09 02:15:00,38.1,32.8,30.21,NE,39,0.0,2.0,81,0.00,,,0.00,VWS V14.00,2013-03-09 07:15:00,
2013-03-09 02:21:00,38.1,32.5,30.21,NE,39,1.0,3.0,80,0.00,,,0.00,VWS V14.00,2013-03-09 07:21:00,
2013-03-09 02:26:00,39.0,32.7,30.21,NE,39,1.0,2.0,78,0.00,,,0.00,VWS V14.00,2013-03-09 07:26:00,
2013-03-09 02:31:00,39.3,33.0,30.21,NE,39,1.0,2.0,78,0.00,,,0.00,VWS V14.00,2013-03-09 07:31:00,
2013-03-09 02:36:00,39.1,32.8,30.21,NE,39,0.0,1.0,78,0.00,,,0.00,VWS V14.00,2013-03-09 07:36:00,
2013-03-09 02:41:00,38.6,32.7,30.20,NE,39,0.0,0.0,79,0.00,,,0.00,VWS V14.00,2013-03-09 07:41:00,
2013-03-09 02:46:00,37.9,32.6,30.20,NE,39,0.0,0.0,81,0.00,,,0.00,VWS V14.00,2013-03-09 07:46:00,
2013-03-09 02:52:00,37.3,32.3,30.20,NE,39,0.0,0.0,82,0.00,,,0.00,VWS V14.00,2013-03-09 07:52:00,
2013-03-09 02:57:00,36.9,32.5,30.20,NE,39,0.0,0.0,84,0.00,,,0.00,VWS V14.00,2013-03-09 07:57:00,
2013-03-09 03:02:00,36.4,32.6,30.20,NE,38,0.0,0.0,86,0.00,,,0.00,VWS V14.00,2013-03-09 08:02:00,
2013-03-09 03:07:00,36.1,32.6,30.20,NE,38,0.0,0.0,87,0.00,,,0.00,VWS V14.00,2013-03-09 08:07:00,
2013-03-09 03:12:00,35.8,32.3,30.20,NE,39,0.0,0.0,87,0.00,,,0.00,VWS V14.00,2013-03-09 08:12:00,
2013-03-09 03:17:00,35.6,32.1,30.20,NE,39,0.0,0.0,87,0.00,,,0.00,VWS V14.00,2013-03-09 08:17:00,
2013-03-09 03:22:00,35.2,32.0,30.20,NE,38,0.0,0.0,88,0.00,,,0.00,VWS V14.00,2013-03-09 08:22:00,
2013-03-09 03:28:00,35.0,31.8,30.20,NE,39,0.0,0.0,88,0.00,,,0.00,VWS V14.00,2013-03-09 08:28:00,
2013-03-09 03:33:00,34.8,31.9,30.20,NE,39,0.0,0.0,89,0.00,,,0.00,VWS V14.00,2013-03-09 08:33:00,
2013-03-09 03:38:00,34.6,31.7,30.20,NE,39,0.0,0.0,89,0.00,,,0.00,VWS V14.00,2013-03-09 08:38:00,
2013-03-09 03:43:00,34.4,31.5,30.19,NE,38,0.0,0.0,89,0.00,,,0.00,VWS V14.00,2013-03-09 08:43:00,
2013-03-09 03:48:00,34.2,31.3,30.19,NE,39,0.0,0.0,89,0.00,,,0.00,VWS V14.00,2013-03-09 08:48:00,
2013-03-09 03:53:00,34.0,31.4,30.19,NE,39,0.0,0.0,90,0.00,,,0.00,VWS V14.00,2013-03-09 08:53:00,
2013-03-09 03:59:00,33.9,31.6,30.19,NE,38,0.0,0.0,91,0.00,,,0.00,VWS V14.00,2013-03-09 08:59:00,
2013-03-09 04:04:00,33.8,31.2,30.19,NE,39,0.0,0.0,90,0.00,,,0.00,VWS V14.00,2013-03-09 09:04:00,
2013-03-09 04:09:00,33.7,31.4,30.19,NE,39,0.0,0.0,91,0.00,,,0.00,VWS V14.00,2013-03-09 09:09:00,
2013-03-09 04:14:00,33.6,31.3,30.19,NE,39,0.0,0.0,91,0.00,,,0.00,VWS V14.00,2013-03-09 09:14:00,
2013-03-09 04:19:00,33.5,31.2,30.20,NE,39,0.0,0.0,91,0.00,,,0.00,VWS V14.00,2013-03-09 09:19:00,
2013-03-09 04:24:00,33.3,31.0,30.20,NE,38,0.0,0.0,91,0.00,,,0.00,VWS V14.00,2013-03-09 09:24:00,
2013-03-09 04:30:00,33.2,30.9,30.20,NE,39,0.0,0.0,91,0.00,,,0.00,VWS V14.00,2013-03-09 09:30:00,
2013-03-09 04:35:00,33.1,30.8,30.20,NE,39,0.0,1.0,91,0.00,,,0.00,VWS V14.00,2013-03-09 09:35:00,
2013-03-09 04:40:00,33.0,30.9,30.20,NE,39,0.0,1.0,92,0.00,,,0.00,VWS V14.00,2013-03-09 09:40:00,
2013-03-09 04:45:00,32.9,30.8,30.20,NE,39,0.0,0.0,92,0.00,,,0.00,VWS V14.00,2013-03-09 09:45:00,
2013-03-09 04:50:00,32.9,30.8,30.21,NE,39,0.0,0.0,92,0.00,,,0.00,VWS V14.00,2013-03-09 09:50:00,
2013-03-09 04:55:00,33.0,30.9,30.21,NE,39,0.0,0.0,92,0.00,,,0.00,VWS V14.00,2013-03-09 09:55:00,
2013-03-09 05:00:00,33.0,30.9,30.21,NE,39,0.0,0.0,92,0.00,,,0.00,VWS V14.00,2013-03-09 10:00:00,
2013-03-09 05:06:00,32.9,30.8,30.21,NE,39,0.0,0.0,92,0.00,,,0.00,VWS V14.00,2013-03-09 10:06:00,
2013-03-09 05:11:00,32.9,30.8,30.21,NE,39,0.0,0.0,92,0.00,,,0.00,VWS V14.00,2013-03-09 10:11:00,
2013-03-09 05:16:00,32.8,31.0,30.21,NE,38,0.0,0.0,93,0.00,,,0.00,VWS V14.00,2013-03-09 10:16:00,
2013-03-09 05:21:00,32.8,31.0,30.22,NE,39,0.0,0.0,93,0.00,,,0.00,VWS V14.00,2013-03-09 10:21:00,
2013-03-09 05:26:00,32.8,31.0,30.22,NE,38,0.0,0.0,93,0.00,,,0.00,VWS V14.00,2013-03-09 10:26:00,
2013-03-09 05:32:00,32.6,30.8,30.22,NE,39,0.0,0.0,93,0.00,,,0.00,VWS V14.00,2013-03-09 10:32:00,
2013-03-09 05:37:00,32.6,30.8,30.22,NE,38,0.0,0.0,93,0.00,,,0.00,VWS V14.00,2013-03-09 10:37:00,
2013-03-09 05:42:00,32.5,30.4,30.22,NE,39,0.0,0.0,92,0.00,,,0.00,VWS V14.00,2013-03-09 10:42:00,
2013-03-09 05:47:00,32.5,30.7,30.22,NE,39,0.0,0.0,93,0.00,,,0.00,VWS V14.00,2013-03-09 10:47:00,
2013-03-09 05:52:00,32.4,30.6,30.22,NE,39,0.0,0.0,93,0.00,,,0.00,VWS V14.00,2013-03-09 10:52:00,
2013-03-09 05:57:00,32.3,30.5,30.22,NE,38,0.0,0.0,93,0.00,,,0.00,VWS V14.00,2013-03-09 10:57:00,
2013-03-09 06:03:00,32.2,30.4,30.22,NE,38,0.0,0.0,93,0.00,,,0.00,VWS V14.00,2013-03-09 11:03:00,
2013-03-09 06:08:00,32.1,30.3,30.22,NE,39,0.0,0.0,93,0.00,,,0.00,VWS V14.00,2013-03-09 11:08:00,
2013-03-09 06:13:00,32.1,30.3,30.22,NE,39,0.0,0.0,93,0.00,,,0.00,VWS V14.00,2013-03-09 11:13:00,
2013-03-09 06:18:00,32.0,30.2,30.22,NE,39,0.0,0.0,93,0.00,,,0.00,VWS V14.00,2013-03-09 11:18:00,
2013-03-09 06:23:00,31.9,30.1,30.22,NE,39,0.0,0.0,93,0.00,,,0.00,VWS V14.00,2013-03-09 11:23:00,
2013-03-09 06:28:00,31.8,30.0,30.22,NE,39,0.0,0.0,93,0.00,,,0.00,VWS V14.00,2013-03-09 11:28:00,
2013-03-09 06:33:00,31.8,30.0,30.22,NE,39,0.0,0.0,93,0.00,,,0.00,VWS V14.00,2013-03-09 11:33:00,
2013-03-09 06:38:00,31.7,30.2,30.22,NE,38,0.0,0.0,94,0.00,,,0.00,VWS V14.00,2013-03-09 11:38:00,
2013-03-09 06:43:00,31.7,30.2,30.22,NE,39,0.0,0.0,94,0.00,,,0.00,VWS V14.00,2013-03-09 11:43:00,
2013-03-09 06:49:00,31.8,30.3,30.22,NE,38,0.0,0.0,94,0.00,,,0.00,VWS V14.00,2013-03-09 11:49:00,
2013-03-09 06:54:00,31.9,30.4,30.23,NE,38,0.0,0.0,94,0.00,,,0.00,VWS V14.00,2013-03-09 11:54:00,
2013-03-09 06:59:00,32.0,30.5,30.23,NE,39,0.0,0.0,94,0.00,,,0.00,VWS V14.00,2013-03-09 11:59:00,
2013-03-09 07:04:00,32.1,30.6,30.23,NE,38,0.0,0.0,94,0.00,,,0.00,VWS V14.00,2013-03-09 12:04:00,
2013-03-09 07:09:00,32.2,30.7,30.24,NE,39,0.0,0.0,94,0.00,,,0.00,VWS V14.00,2013-03-09 12:09:00,
2013-03-09 07:14:00,32.5,31.0,30.24,NE,38,0.0,0.0,94,0.00,,,0.00,VWS V14.00,2013-03-09 12:14:00,
2013-03-09 07:19:00,32.7,31.2,30.23,NE,39,0.0,0.0,94,0.00,,,0.00,VWS V14.00,2013-03-09 12:19:00,
2013-03-09 07:24:00,33.1,31.8,30.24,NE,39,0.0,0.0,95,0.00,,,0.00,VWS V14.00,2013-03-09 12:24:00,
2013-03-09 07:30:00,33.7,32.4,30.23,NE,38,2.0,2.0,95,0.00,,,0.00,VWS V14.00,2013-03-09 12:30:00,
2013-03-09 07:35:00,35.1,33.8,30.24,NE,38,1.0,2.0,95,0.00,,,0.00,VWS V14.00,2013-03-09 12:35:00,
2013-03-09 07:40:00,36.8,34.2,30.24,NE,38,1.0,2.0,90,0.00,,,0.00,VWS V14.00,2013-03-09 12:40:00,
2013-03-09 07:45:00,38.3,34.8,30.24,NE,42,2.0,3.0,87,0.00,,,0.00,VWS V14.00,2013-03-09 12:45:00,
2013-03-09 07:50:00,39.5,34.5,30.24,NNE,30,2.0,3.0,82,0.00,,,0.00,VWS V14.00,2013-03-09 12:50:00,
2013-03-09 07:55:00,40.4,34.7,30.24,NNE,31,2.0,3.0,80,0.00,,,0.00,VWS V14.00,2013-03-09 12:55:00,
2013-03-09 08:00:00,41.3,35.0,30.25,NE,36,4.0,4.0,78,0.00,,,0.00,VWS V14.00,2013-03-09 13:00:00,
2013-03-09 08:06:00,42.0,35.3,30.25,NE,35,1.0,3.0,77,0.00,,,0.00,VWS V14.00,2013-03-09 13:06:00,
2013-03-09 08:11:00,42.7,35.3,30.25,ENE,65,2.0,4.0,75,0.00,,,0.00,VWS V14.00,2013-03-09 13:11:00,
2013-03-09 08:16:00,43.3,34.9,30.25,ENE,63,6.0,6.0,72,0.00,,,0.00,VWS V14.00,2013-03-09 13:16:00,
2013-03-09 08:21:00,43.9,35.1,30.25,NE,48,3.0,3.0,71,0.00,,,0.00,VWS V14.00,2013-03-09 13:21:00,
2013-03-09 08:26:00,44.5,35.0,30.25,NE,40,6.0,11.0,69,0.00,,,0.00,VWS V14.00,2013-03-09 13:26:00,
2013-03-09 08:31:00,45.0,35.1,30.25,NE,48,5.0,6.0,68,0.00,,,0.00,VWS V14.00,2013-03-09 13:31:00,
2013-03-09 08:37:00,45.5,35.2,30.25,NNE,17,4.0,6.0,67,0.00,,,0.00,VWS V14.00,2013-03-09 13:37:00,
2013-03-09 08:42:00,45.9,34.4,30.25,ENE,57,3.0,6.0,64,0.00,,,0.00,VWS V14.00,2013-03-09 13:42:00,
2013-03-09 08:47:00,46.2,34.3,30.25,NE,40,4.0,10.0,63,0.00,,,0.00,VWS V14.00,2013-03-09 13:47:00,
2013-03-09 08:52:00,46.6,33.9,30.25,NE,41,5.0,10.0,61,0.00,,,0.00,VWS V14.00,2013-03-09 13:52:00,
2013-03-09 08:57:00,46.9,34.6,30.25,NE,56,9.0,10.0,62,0.00,,,0.00,VWS V14.00,2013-03-09 13:57:00,
2013-03-09 09:03:00,47.2,33.6,30.26,NE,44,10.0,11.0,59,0.00,,,0.00,VWS V14.00,2013-03-09 14:03:00,
2013-03-09 09:08:00,47.4,33.8,30.25,ENE,67,4.0,11.0,59,0.00,,,0.00,VWS V14.00,2013-03-09 14:08:00,
2013-03-09 09:13:00,47.9,34.3,30.25,NE,40,3.0,6.0,59,0.00,,,0.00,VWS V14.00,2013-03-09 14:13:00,
2013-03-09 09:18:00,48.1,34.0,30.25,NE,36,5.0,11.0,58,0.00,,,0.00,VWS V14.00,2013-03-09 14:18:00,
2013-03-09 09:23:00,48.5,34.4,30.25,NNE,33,4.0,6.0,58,0.00,,,0.00,VWS V14.00,2013-03-09 14:23:00,
2013-03-09 09:29:00,48.9,34.8,30.25,NE,38,6.0,7.0,58,0.00,,,0.00,VWS V14.00,2013-03-09 14:29:00,
2013-03-09 09:34:00,49.5,35.8,30.25,NE,41,5.0,6.0,59,0.00,,,0.00,VWS V14.00,2013-03-09 14:34:00,
2013-03-09 09:39:00,49.9,34.8,30.25,NE,40,6.0,11.0,56,0.00,,,0.00,VWS V14.00,2013-03-09 14:39:00,
2013-03-09 09:44:00,49.8,34.8,30.25,NE,49,5.0,13.0,56,0.00,,,0.00,VWS V14.00,2013-03-09 14:44:00,
2013-03-09 09:49:00,50.0,34.9,30.25,NE,44,5.0,13.0,56,0.00,,,0.00,VWS V14.00,2013-03-09 14:49:00,
2013-03-09 09:55:00,50.3,34.8,30.25,NE,51,2.0,5.0,55,0.00,,,0.00,VWS V14.00,2013-03-09 14:55:00,
2013-03-09 10:00:00,50.8,35.2,30.25,ENE,69,6.0,9.0,55,0.00,,,0.00,VWS V14.00,2013-03-09 15:00:00,
2013-03-09 10:05:00,50.8,35.2,30.25,East,86,3.0,9.0,55,0.00,,,0.00,VWS V14.00,2013-03-09 15:05:00,
2013-03-09 10:10:00,51.3,34.8,30.25,NE,45,6.0,10.0,53,0.00,,,0.00,VWS V14.00,2013-03-09 15:10:00,
2013-03-09 10:15:00,51.8,35.7,30.25,ENE,74,3.0,7.0,54,0.00,,,0.00,VWS V14.00,2013-03-09 15:15:00,
2013-03-09 10:20:00,52.4,35.3,30.25,NE,52,3.0,7.0,52,0.00,,,0.00,VWS V14.00,2013-03-09 15:20:00,
2013-03-09 10:26:00,52.6,35.5,30.25,NNE,30,3.0,10.0,52,0.00,,,0.00,VWS V14.00,2013-03-09 15:26:00,
2013-03-09 10:31:00,53.0,35.4,30.25,North,5,4.0,10.0,51,0.00,,,0.00,VWS V14.00,2013-03-09 15:31:00,
2013-03-09 10:36:00,53.1,35.5,30.25,NE,45,4.0,10.0,51,0.00,,,0.00,VWS V14.00,2013-03-09 15:36:00,
2013-03-09 10:41:00,53.3,35.7,30.25,NNE,24,4.0,4.0,51,0.00,,,0.00,VWS V14.00,2013-03-09 15:41:00,
2013-03-09 10:46:00,53.3,35.2,30.25,ENE,73,7.0,10.0,50,0.00,,,0.00,VWS V14.00,2013-03-09 15:46:00,
2013-03-09 10:51:00,53.2,35.1,30.25,NE,50,3.0,5.0,50,0.00,,,0.00,VWS V14.00,2013-03-09 15:51:00,
2013-03-09 10:57:00,53.6,35.9,30.25,ENE,69,2.0,7.0,51,0.00,,,0.00,VWS V14.00,2013-03-09 15:57:00,
2013-03-09 11:02:00,54.4,37.2,30.25,NE,53,6.0,6.0,52,0.00,,,0.00,VWS V14.00,2013-03-09 16:02:00,
2013-03-09 11:07:00,54.8,36.5,30.25,NE,41,10.0,12.0,50,0.00,,,0.00,VWS V14.00,2013-03-09 16:07:00,
2013-03-09 11:12:00,54.6,36.3,30.25,ENE,63,10.0,12.0,50,0.00,,,0.00,VWS V14.00,2013-03-09 16:12:00,
2013-03-09 11:17:00,54.7,36.4,30.25,ENE,64,6.0,12.0,50,0.00,,,0.00,VWS V14.00,2013-03-09 16:17:00,
2013-03-09 11:22:00,54.8,36.0,30.25,NNE,32,6.0,6.0,49,0.00,,,0.00,VWS V14.00,2013-03-09 16:22:00,
2013-03-09 11:28:00,55.2,36.4,30.24,NNE,13,3.0,10.0,49,0.00,,,0.00,VWS V14.00,2013-03-09 16:28:00,
2013-03-09 11:33:00,55.8,36.4,30.24,North,355,3.0,6.0,48,0.00,,,0.00,VWS V14.00,2013-03-09 16:33:00,
2013-03-09 11:38:00,56.1,36.7,30.24,ENE,64,5.0,11.0,48,0.00,,,0.00,VWS V14.00,2013-03-09 16:38:00,
2013-03-09 11:43:00,56.3,36.9,30.24,ENE,76,6.0,7.0,48,0.00,,,0.00,VWS V14.00,2013-03-09 16:43:00,
2013-03-09 11:48:00,56.5,37.6,30.25,NE,37,3.0,8.0,49,0.00,,,0.00,VWS V14.00,2013-03-09 16:48:00,
2013-03-09 11:53:00,57.2,37.2,30.24,ENE,61,4.0,11.0,47,0.00,,,0.00,VWS V14.00,2013-03-09 16:53:00,
2013-03-09 11:58:00,57.7,37.6,30.24,NNE,16,4.0,11.0,47,0.00,,,0.00,VWS V14.00,2013-03-09 16:58:00,
2013-03-09 16:52:00,57.5,37.5,30.24,ENE,61,4.0,7.0,47,0.00,,,0.00,VWS V14.00,2013-03-09 21:52:00,
2013-03-09 16:57:00,61.9,44.6,30.18,South,182,1.0,7.0,53,0.00,,,0.00,VWS V14.00,2013-03-09 21:57:00,
2013-03-09 17:02:00,61.4,44.6,30.18,SSW,196,0.0,2.0,54,0.00,,,0.00,VWS V14.00,2013-03-09 22:02:00,
2013-03-09 17:07:00,61.0,44.2,30.19,SW,221,2.0,6.0,54,0.00,,,0.00,VWS V14.00,2013-03-09 22:07:00,
2013-03-09 17:12:00,60.6,44.8,30.19,SSW,205,1.0,2.0,56,0.00,,,0.00,VWS V14.00,2013-03-09 22:12:00,
2013-03-09 17:17:00,60.0,44.7,30.19,SSE,155,2.0,6.0,57,0.00,,,0.00,VWS V14.00,2013-03-09 22:17:00,
2013-03-09 17:23:00,59.6,44.8,30.19,WSW,243,2.0,2.0,58,0.00,,,0.00,VWS V14.00,2013-03-09 22:23:00,
2013-03-09 17:28:00,59.2,44.9,30.19,SSW,206,0.0,3.0,59,0.00,,,0.00,VWS V14.00,2013-03-09 22:28:00,
2013-03-09 17:33:00,59.1,45.2,30.19,SSW,206,0.0,0.0,60,0.00,,,0.00,VWS V14.00,2013-03-09 22:33:00,
2013-03-09 17:38:00,58.7,44.9,30.19,SW,232,1.0,3.0,60,0.00,,,0.00,VWS V14.00,2013-03-09 22:38:00,
2013-03-09 17:43:00,58.2,45.3,30.20,SW,223,0.0,1.0,62,0.00,,,0.00,VWS V14.00,2013-03-09 22:43:00,
2013-03-09 17:48:00,57.9,45.0,30.20,SW,223,1.0,1.0,62,0.00,,,0.00,VWS V14.00,2013-03-09 22:48:00,
2013-03-09 17:54:00,57.3,45.2,30.20,SW,223,0.0,1.0,64,0.00,,,0.00,VWS V14.00,2013-03-09 22:54:00,
2013-03-09 17:59:00,56.9,44.9,30.20,SW,223,0.0,1.0,64,0.00,,,0.00,VWS V14.00,2013-03-09 22:59:00,
2013-03-09 18:04:00,56.5,44.9,30.20,SW,223,0.0,2.0,65,0.00,,,0.00,VWS V14.00,2013-03-09 23:04:00,
2013-03-09 18:09:00,55.9,44.7,30.21,SW,223,0.0,2.0,66,0.00,,,0.00,VWS V14.00,2013-03-09 23:09:00,
2013-03-09 18:14:00,55.4,44.2,30.21,SW,218,0.0,1.0,66,0.00,,,0.00,VWS V14.00,2013-03-09 23:14:00,
2013-03-09 18:19:00,54.9,44.2,30.21,SW,218,0.0,2.0,67,0.00,,,0.00,VWS V14.00,2013-03-09 23:19:00,
2013-03-09 18:25:00,54.4,44.1,30.21,SW,218,0.0,0.0,68,0.00,,,0.00,VWS V14.00,2013-03-09 23:25:00,
2013-03-09 18:30:00,53.9,44.3,30.21,SW,218,0.0,0.0,70,0.00,,,0.00,VWS V14.00,2013-03-09 23:30:00,
2013-03-09 18:35:00,53.5,44.3,30.21,SW,218,0.0,0.0,71,0.00,,,0.00,VWS V14.00,2013-03-09 23:35:00,
2013-03-09 18:40:00,53.0,44.2,30.22,SW,218,0.0,0.0,72,0.00,,,0.00,VWS V14.00,2013-03-09 23:40:00,
2013-03-09 18:45:00,52.3,44.3,30.22,SW,218,0.0,0.0,74,0.00,,,0.00,VWS V14.00,2013-03-09 23:45:00,
2013-03-09 18:50:00,51.7,44.0,30.22,SW,218,0.0,0.0,75,0.00,,,0.00,VWS V14.00,2013-03-09 23:50:00,
2013-03-09 18:56:00,51.2,43.9,30.22,SW,218,0.0,0.0,76,0.00,,,0.00,VWS V14.00,2013-03-09 23:56:00,
2013-03-09 19:01:00,50.8,43.9,30.23,SW,218,0.0,0.0,77,0.00,,,0.00,VWS V14.00,2013-03-10 00:01:00,
2013-03-09 19:06:00,50.4,43.8,30.23,SW,218,0.0,0.0,78,0.00,,,0.00,VWS V14.00,2013-03-10 00:06:00,
2013-03-09 19:11:00,50.1,43.8,30.23,SW,218,0.0,0.0,79,0.00,,,0.00,VWS V14.00,2013-03-10 00:11:00,
2013-03-09 19:16:00,49.9,44.0,30.23,SW,218,0.0,0.0,80,0.00,,,0.00,VWS V14.00,2013-03-10 00:16:00,
2013-03-09 19:21:00,49.6,43.7,30.23,SW,218,0.0,0.0,80,0.00,,,0.00,VWS V14.00,2013-03-10 00:21:00,
2013-03-09 19:27:00,49.3,43.7,30.23,SW,218,0.0,0.0,81,0.00,,,0.00,VWS V14.00,2013-03-10 00:27:00,
2013-03-09 19:32:00,49.0,43.4,30.23,SW,218,0.0,0.0,81,0.00,,,0.00,VWS V14.00,2013-03-10 00:32:00,
2013-03-09 19:37:00,48.7,43.5,30.23,SW,218,0.0,0.0,82,0.00,,,0.00,VWS V14.00,2013-03-10 00:37:00,
2013-03-09 19:42:00,48.4,43.8,30.23,SW,218,0.0,0.0,84,0.00,,,0.00,VWS V14.00,2013-03-10 00:42:00,
2013-03-09 19:47:00,48.0,43.4,30.23,SW,218,0.0,0.0,84,0.00,,,0.00,VWS V14.00,2013-03-10 00:47:00,
2013-03-09 19:53:00,47.6,43.3,30.23,SW,218,0.0,2.0,85,0.00,,,0.00,VWS V14.00,2013-03-10 00:53:00,
2013-03-09 19:58:00,47.1,42.8,30.23,SW,218,0.0,2.0,85,0.00,,,0.00,VWS V14.00,2013-03-10 00:58:00,
2013-03-09 20:03:00,46.8,42.8,30.23,SW,218,0.0,0.0,86,0.00,,,0.00,VWS V14.00,2013-03-10 01:03:00,
2013-03-09 20:08:00,46.5,42.5,30.23,SW,218,0.0,0.0,86,0.00,,,0.00,VWS V14.00,2013-03-10 01:08:00,
2013-03-09 20:13:00,46.1,42.5,30.23,SW,218,0.0,0.0,87,0.00,,,0.00,VWS V14.00,2013-03-10 01:13:00,
2013-03-09 20:18:00,45.8,42.2,30.23,SW,218,0.0,0.0,87,0.00,,,0.00,VWS V14.00,2013-03-10 01:18:00,
2013-03-09 20:24:00,45.4,42.1,30.23,SW,218,0.0,0.0,88,0.00,,,0.00,VWS V14.00,2013-03-10 01:24:00,
2013-03-09 20:29:00,45.1,41.8,30.23,SW,218,0.0,0.0,88,0.00,,,0.00,VWS V14.00,2013-03-10 01:29:00,
2013-03-09 20:34:00,44.9,41.6,30.23,SW,218,0.0,0.0,88,0.00,,,0.00,VWS V14.00,2013-03-10 01:34:00,
2013-03-09 20:39:00,44.5,41.5,30.23,SW,218,0.0,0.0,89,0.00,,,0.00,VWS V14.00,2013-03-10 01:39:00,
2013-03-09 20:44:00,44.1,41.1,30.23,SW,218,0.0,0.0,89,0.00,,,0.00,VWS V14.00,2013-03-10 01:44:00,
2013-03-09 20:50:00,44.0,41.0,30.23,SW,218,0.0,0.0,89,0.00,,,0.00,VWS V14.00,2013-03-10 01:50:00,
2013-03-09 20:55:00,43.8,40.8,30.23,SW,218,0.0,0.0,89,0.00,,,0.00,VWS V14.00,2013-03-10 01:55:00,
2013-03-09 21:00:00,43.6,40.9,30.24,SW,218,0.0,0.0,90,0.00,,,0.00,VWS V14.00,2013-03-10 02:00:00,
2013-03-09 21:05:00,43.4,40.7,30.24,SW,218,0.0,0.0,90,0.00,,,0.00,VWS V14.00,2013-03-10 02:05:00,
2013-03-09 21:10:00,43.3,40.8,30.24,SW,218,0.0,0.0,91,0.00,,,0.00,VWS V14.00,2013-03-10 02:10:00,
2013-03-09 21:15:00,43.1,40.4,30.24,SW,218,0.0,0.0,90,0.00,,,0.00,VWS V14.00,2013-03-10 02:15:00,
2013-03-09 21:20:00,42.9,40.5,30.24,SW,218,0.0,0.0,91,0.00,,,0.00,VWS V14.00,2013-03-10 02:20:00,
2013-03-09 21:25:00,42.6,40.2,30.23,SW,218,0.0,0.0,91,0.00,,,0.00,VWS V14.00,2013-03-10 02:25:00,
2013-03-09 21:31:00,42.5,40.1,30.23,SW,218,0.0,0.0,91,0.00,,,0.00,VWS V14.00,2013-03-10 02:31:00,
2013-03-09 21:36:00,42.4,40.2,30.24,SW,218,0.0,0.0,92,0.00,,,0.00,VWS V14.00,2013-03-10 02:36:00,
2013-03-09 21:41:00,42.2,39.8,30.23,SW,218,0.0,0.0,91,0.00,,,0.00,VWS V14.00,2013-03-10 02:41:00,
2013-03-09 21:46:00,42.0,39.8,30.23,SW,218,0.0,0.0,92,0.00,,,0.00,VWS V14.00,2013-03-10 02:46:00,
2013-03-09 21:51:00,41.7,39.5,30.24,SW,218,0.0,0.0,92,0.00,,,0.00,VWS V14.00,2013-03-10 02:51:00,
2013-03-09 21:56:00,41.5,39.3,30.24,SW,218,0.0,0.0,92,0.00,,,0.00,VWS V14.00,2013-03-10 02:56:00,
2013-03-09 22:01:00,41.3,39.2,30.24,SW,218,0.0,0.0,92,0.00,,,0.00,VWS V14.00,2013-03-10 03:01:00,
2013-03-09 22:07:00,41.1,39.0,30.24,SW,218,0.0,0.0,92,0.00,,,0.00,VWS V14.00,2013-03-10 03:07:00,
2013-03-09 22:12:00,40.9,38.8,30.24,SW,218,0.0,0.0,92,0.00,,,0.00,VWS V14.00,2013-03-10 03:12:00,
2013-03-09 22:17:00,40.8,38.9,30.24,SW,218,0.0,0.0,93,0.00,,,0.00,VWS V14.00,2013-03-10 03:17:00,
2013-03-09 22:22:00,40.7,38.8,30.24,SW,218,0.0,0.0,93,0.00,,,0.00,VWS V14.00,2013-03-10 03:22:00,
2013-03-09 22:27:00,40.6,38.7,30.24,SW,218,0.0,0.0,93,0.00,,,0.00,VWS V14.00,2013-03-10 03:27:00,
2013-03-09 22:32:00,40.4,38.5,30.24,SW,218,0.0,0.0,93,0.00,,,0.00,VWS V14.00,2013-03-10 03:32:00,
2013-03-09 22:37:00,40.2,38.3,30.24,SW,218,0.0,0.0,93,0.00,,,0.00,VWS V14.00,2013-03-10 03:37:00,
2013-03-09 22:43:00,40.0,38.1,30.25,SW,218,0.0,0.0,93,0.00,,,0.00,VWS V14.00,2013-03-10 03:43:00,
2013-03-09 22:48:00,39.8,38.0,30.25,SW,218,0.0,0.0,93,0.00,,,0.00,VWS V14.00,2013-03-10 03:48:00,
2013-03-09 22:53:00,39.7,37.8,30.24,SW,218,0.0,0.0,93,0.00,,,0.00,VWS V14.00,2013-03-10 03:53:00,
2013-03-09 22:58:00,39.7,37.8,30.25,SW,218,0.0,0.0,93,0.00,,,0.00,VWS V14.00,2013-03-10 03:58:00,
2013-03-09 23:03:00,39.6,37.8,30.24,SW,218,0.0,0.0,93,0.00,,,0.00,VWS V14.00,2013-03-10 04:03:00,
2013-03-09 23:09:00,39.5,37.7,30.25,SW,218,0.0,0.0,93,0.00,,,0.00,VWS V14.00,2013-03-10 04:09:00,
2013-03-09 23:14:00,39.4,37.8,30.25,SW,218,0.0,0.0,94,0.00,,,0.00,VWS V14.00,2013-03-10 04:14:00,
2013-03-09 23:19:00,39.3,37.7,30.25,SW,218,0.0,0.0,94,0.00,,,0.00,VWS V14.00,2013-03-10 04:19:00,
2013-03-09 23:24:00,39.3,37.7,30.25,SW,218,0.0,0.0,94,0.00,,,0.00,VWS V14.00,2013-03-10 04:24:00,
2013-03-09 23:29:00,39.2,37.6,30.25,SW,218,0.0,0.0,94,0.00,,,0.00,VWS V14.00,2013-03-10 04:29:00,
2013-03-09 23:34:00,39.2,37.6,30.25,SW,218,0.0,0.0,94,0.00,,,0.00,VWS V14.00,2013-03-10 04:34:00,
2013-03-09 23:40:00,39.2,37.6,30.25,SW,218,0.0,0.0,94,0.00,,,0.00,VWS V14.00,2013-03-10 04:40:00,
2013-03-09 23:45:00,39.1,37.5,30.25,SW,218,0.0,0.0,94,0.00,,,0.00,VWS V14.00,2013-03-10 04:45:00,
2013-03-09 23:50:00,39.0,37.4,30.24,SW,218,0.0,0.0,94,0.00,,,0.00,VWS V14.00,2013-03-10 04:50:00,
2013-03-09 23:55:00,39.0,37.4,30.24,SW,218,0.0,0.0,94,0.00,,,0.00,VWS V14.00,2013-03-10 04:55:00,